Time;durP1;ratioP1;P1;durP2;ratioP2;P2;SDS_P1;SDS_P2;PMS_P1;PMS_P2;Temp;Humidity;BMP_temperature;BMP_pressure;BME280_temperature;BME280_humidity;BME280_pressure;Samples;Min_cycle;Max_cycle;Signal;HPM_P1;HPM_P2
2022/12/01 00:01:15;;;;;;;;;;;;;;;20.02;58.79;101806.44;7403400;19;1876;-69
2022/12/01 00:03:45;;;;;;;;;;;;;;;20.01;58.82;101815.47;7406674;19;1447;-66
2022/12/01 00:06:14;;;;;;;;;;;;;;;20.00;58.77;101803.03;7405387;19;1086;-63
2022/12/01 00:10:24;;;;;;;;;;;;;;;19.97;58.73;101804.09;7405527;19;1737;-67
2022/12/01 00:11:31;;;;;;;;;;;;;;;20.00;58.64;101797.66;7407750;19;858;-62
2022/12/01 00:14:00;;;;;;;;;;;;;;;19.97;58.78;101798.72;7404766;19;1684;-63
2022/12/01 00:16:28;;;;;;;;;;;;;;;19.86;59.34;101812.13;7403174;19;1525;-68
2022/12/01 00:18:56;;;;;;;;;;;;;;;19.42;60.30;101811.75;7405033;19;1357;-64
2022/12/01 00:21:26;;;;;;;;;;;;;;;19.06;61.11;101812.59;7400836;19;1853;-65
2022/12/01 00:23:55;;;;;;;;;;;;;;;18.87;61.48;101823.78;7405607;19;1519;-65
2022/12/01 00:26:24;;;;;;;;;;;;;;;18.77;61.92;101836.06;7407022;19;1313;-64
2022/12/01 00:28:56;;;;;;;;;;;;;;;18.68;62.20;101832.19;7403797;19;1387;-64
2022/12/01 00:31:24;;;;;;;;;;;;;;;18.60;62.22;101832.75;7402769;19;1520;-64
2022/12/01 00:33:52;;;;;;;;;;;;;;;18.56;62.19;101822.34;7404992;19;1569;-65
2022/12/01 00:36:21;;;;;;;;;;;;;;;18.47;62.23;101811.31;7405007;19;1410;-64
2022/12/01 00:38:49;;;;;;;;;;;;;;;18.43;62.27;101808.97;7404309;19;1546;-65
2022/12/01 00:41:18;;;;;;;;;;;;;;;18.40;62.04;101803.81;7405333;19;1848;-65
2022/12/01 00:43:46;;;;;;;;;;;;;;;18.33;62.33;101811.41;7403894;19;1731;-65
2022/12/01 00:46:17;;;;;;;;;;;;;;;18.29;62.25;101808.09;7404707;19;1371;-65
2022/12/01 00:48:45;;;;;;;;;;;;;;;18.25;61.93;101801.22;7404397;19;1530;-64
2022/12/01 00:51:13;;;;;;;;;;;;;;;18.21;62.21;101805.09;7403609;19;1486;-65
2022/12/01 00:53:41;;;;;;;;;;;;;;;18.21;62.16;101799.72;7403556;19;1397;-64
2022/12/01 00:56:10;;;;;;;;;;;;;;;18.11;62.22;101792.44;7404338;19;1456;-65
2022/12/01 00:58:38;;;;;;;;;;;;;;;18.13;61.90;101807.44;7402618;19;1325;-65
2022/12/01 01:01:06;;;;;;;;;;;;;;;18.07;61.65;101798.00;7400844;19;1849;-65
2022/12/01 01:03:38;;;;;;;;;;;;;;;18.07;61.68;101810.53;7405750;19;1538;-65
2022/12/01 01:06:07;;;;;;;;;;;;;;;18.05;62.05;101820.47;7403189;19;1365;-65
2022/12/01 01:08:36;;;;;;;;;;;;;;;17.98;61.85;101803.97;7404428;19;1333;-65
2022/12/01 01:11:04;;;;;;;;;;;;;;;17.96;61.98;101805.03;7404964;19;1276;-66
2022/12/01 01:13:33;;;;;;;;;;;;;;;17.95;61.84;101795.31;7402070;19;1677;-65
2022/12/01 01:16:02;;;;;;;;;;;;;;;17.93;61.75;101789.19;7403475;19;1794;-65
2022/12/01 01:18:30;;;;;;;;;;;;;;;17.89;61.95;101781.38;7402520;19;1341;-65
2022/12/01 01:21:03;;;;;;;;;;;;;;;17.89;61.96;101783.19;7402733;19;1842;-65
2022/12/01 01:23:32;;;;;;;;;;;;;;;17.85;62.26;101787.03;7403590;19;1345;-65
2022/12/01 01:26:02;;;;;;;;;;;;;;;17.83;62.09;101797.84;7404355;19;1068;-65
2022/12/01 01:28:31;;;;;;;;;;;;;;;17.79;61.80;101772.22;7402520;19;1462;-65
2022/12/01 01:30:59;;;;;;;;;;;;;;;17.80;62.00;101783.75;7404057;19;1427;-64
2022/12/01 01:33:28;;;;;;;;;;;;;;;17.76;61.67;101775.06;7404618;19;1633;-64
2022/12/01 01:35:59;;;;;;;;;;;;;;;17.75;61.69;101765.34;7403629;19;1557;-65
2022/12/01 01:38:30;;;;;;;;;;;;;;;17.33;62.15;101711.09;7402390;19;1389;-65
2022/12/01 01:40:59;;;;;;;;;;;;;;;17.70;61.62;101770.13;7402195;19;1854;-65
2022/12/01 01:43:47;;;;;;;;;;;;;;;17.74;61.43;101768.97;7402254;19;1791;-65
2022/12/01 01:46:16;;;;;;;;;;;;;;;17.72;61.31;101770.91;7402283;19;1466;-65
2022/12/01 01:48:47;;;;;;;;;;;;;;;17.72;61.92;101754.00;7401994;19;1391;-64
2022/12/01 01:51:16;;;;;;;;;;;;;;;17.70;61.25;101762.13;7403068;19;1268;-64
2022/12/01 01:53:48;;;;;;;;;;;;;;;17.68;61.66;101753.34;7402555;19;1390;-65
2022/12/01 01:56:16;;;;;;;;;;;;;;;17.66;61.38;101763.28;7408942;19;943;-65
2022/12/01 01:58:45;;;;;;;;;;;;;;;17.70;61.11;101764.78;7409789;19;1567;-65
2022/12/01 02:01:13;;;;;;;;;;;;;;;17.64;61.09;101751.84;7408879;19;1861;-65
2022/12/01 02:03:43;;;;;;;;;;;;;;;17.67;61.11;101762.34;7408406;19;1394;-65
2022/12/01 02:06:12;;;;;;;;;;;;;;;17.63;61.24;101755.47;7409740;19;1364;-65
2022/12/01 02:08:40;;;;;;;;;;;;;;;17.60;61.34;101747.66;7409717;19;1378;-65
2022/12/01 02:11:26;;;;;;;;;;;;;;;17.61;61.28;101741.34;7411641;19;952;-64
2022/12/01 02:14:04;;;;;;;;;;;;;;;17.62;60.95;101735.03;7409088;19;1759;-65
2022/12/01 02:16:37;;;;;;;;;;;;;;;17.59;60.90;101759.31;7409664;19;1621;-65
2022/12/01 02:19:13;;;;;;;;;;;;;;;17.57;61.15;101758.56;7408988;19;1462;-65
2022/12/01 02:21:50;;;;;;;;;;;;;;;17.59;60.93;101753.97;7405667;19;1861;-65
2022/12/01 02:24:26;;;;;;;;;;;;;;;17.55;61.21;101739.06;7407765;19;1791;-65
2022/12/01 02:27:00;;;;;;;;;;;;;;;17.58;60.88;101749.56;7409904;19;964;-65
2022/12/01 02:29:46;;;;;;;;;;;;;;;17.58;60.99;101746.88;7409591;19;1490;-65
2022/12/01 02:32:20;;;;;;;;;;;;;;;17.54;60.94;101748.91;7405358;19;1803;-65
2022/12/01 02:34:51;;;;;;;;;;;;;;;17.50;60.96;101761.63;7410321;19;1390;-65
2022/12/01 02:37:25;;;;;;;;;;;;;;;17.55;60.67;101750.63;7409355;19;1567;-65
2022/12/01 02:39:58;;;;;;;;;;;;;;;17.54;60.74;101745.38;7408533;19;1927;-65
2022/12/01 02:45:14;;;;;;;;;;;;;;;17.47;60.73;101751.16;7410289;19;1412;-64
2022/12/01 02:47:46;;;;;;;;;;;;;;;17.49;60.50;101749.22;7409919;19;1312;-64
2022/12/01 02:50:15;;;;;;;;;;;;;;;17.47;60.54;101753.81;7409033;19;1056;-65
2022/12/01 02:52:44;;;;;;;;;;;;;;;17.45;60.46;101747.72;7407796;19;1500;-64
2022/12/01 02:55:14;;;;;;;;;;;;;;;17.47;60.27;101766.34;7408567;19;1438;-65
2022/12/01 02:57:42;;;;;;;;;;;;;;;17.41;60.53;101764.06;7408377;19;1285;-65
2022/12/01 03:00:12;;;;;;;;;;;;;;;17.49;60.67;101757.25;7409166;19;989;-65
2022/12/01 03:02:48;;;;;;;;;;;;;;;17.85;59.71;101744.22;7401680;19;1894;-65
2022/12/01 03:05:23;;;;;;;;;;;;;;;18.46;58.54;101745.34;7409145;19;1660;-65
2022/12/01 03:07:55;;;;;;;;;;;;;;;19.26;56.81;101749.47;7408882;19;1776;-65
2022/12/01 03:10:27;;;;;;;;;;;;;;;19.52;55.71;101749.34;7408080;19;1649;-65
2022/12/01 03:13:02;;;;;;;;;;;;;;;19.70;55.61;101747.97;7406777;19;1434;-64
2022/12/01 03:15:35;;;;;;;;;;;;;;;19.88;55.07;101740.38;7407489;19;1703;-65
2022/12/01 03:18:08;;;;;;;;;;;;;;;19.70;55.63;101742.59;7408831;19;1394;-64
2022/12/01 03:20:41;;;;;;;;;;;;;;;18.94;57.37;101743.78;7407041;19;1851;-65
2022/12/01 03:23:11;;;;;;;;;;;;;;;18.46;58.72;101745.34;7408581;19;1304;-65
2022/12/01 03:25:41;;;;;;;;;;;;;;;18.21;59.19;101738.16;7408766;19;1719;-65
2022/12/01 03:28:10;;;;;;;;;;;;;;;18.05;59.75;101740.19;7407837;19;1729;-65
2022/12/01 03:30:39;;;;;;;;;;;;;;;17.95;59.86;101750.66;7405297;19;1697;-65
2022/12/01 03:33:10;;;;;;;;;;;;;;;17.87;59.87;101740.47;7409549;19;1257;-65
2022/12/01 03:35:44;;;;;;;;;;;;;;;17.83;59.98;101746.13;7409596;19;952;-65
2022/12/01 03:38:14;;;;;;;;;;;;;;;17.75;60.05;101740.44;7407056;19;1724;-65
2022/12/01 03:40:43;;;;;;;;;;;;;;;17.70;60.45;101741.56;7406469;19;1846;-64
2022/12/01 03:43:15;;;;;;;;;;;;;;;17.68;60.21;101745.31;7404844;19;1518;-65
2022/12/01 03:45:48;;;;;;;;;;;;;;;17.65;59.83;101754.41;7407660;19;1346;-65
2022/12/01 03:48:16;;;;;;;;;;;;;;;17.63;60.03;101747.47;7406457;19;1292;-64
2022/12/01 03:50:54;;;;;;;;;;;;;;;17.61;59.88;101742.19;7408108;19;1007;-65
2022/12/01 03:53:25;;;;;;;;;;;;;;;17.60;59.81;101750.31;7406537;19;1641;-65
2022/12/01 03:55:58;;;;;;;;;;;;;;;17.62;60.16;101753.75;7407137;19;1725;-64
2022/12/01 03:58:32;;;;;;;;;;;;;;;17.56;59.81;101754.16;7405254;19;1633;-65
2022/12/01 04:01:01;;;;;;;;;;;;;;;17.58;60.16;101763.78;7403742;19;1859;-64
2022/12/01 04:03:29;;;;;;;;;;;;;;;17.51;59.87;101751.81;7406589;19;1403;-64
2022/12/01 04:06:00;;;;;;;;;;;;;;;17.51;59.66;101751.81;7406668;19;1607;-65
2022/12/01 04:08:29;;;;;;;;;;;;;;;17.51;59.96;101754.47;7406716;19;1507;-64
2022/12/01 04:10:58;;;;;;;;;;;;;;;17.41;60.06;101758.72;7408239;19;937;-65
2022/12/01 04:13:24;;;;;;;;;;;;;;;17.43;59.72;101754.97;7404262;19;1519;-64
2022/12/01 04:15:53;;;;;;;;;;;;;;;17.44;60.17;101745.97;7407130;19;1378;-65
2022/12/01 04:18:21;;;;;;;;;;;;;;;17.37;60.34;101744.69;7404321;19;1527;-65
2022/12/01 04:20:50;;;;;;;;;;;;;;;17.29;61.11;101737.16;7403916;19;1875;-65
2022/12/01 04:26:02;;;;;;;;;;;;;;;17.19;61.55;101743.19;7405151;19;1067;-65
2022/12/01 04:28:30;;;;;;;;;;;;;;;17.21;62.27;101746.63;7402226;19;1436;-65
2022/12/01 04:30:58;;;;;;;;;;;;;;;17.40;61.61;101760.50;7405920;19;1396;-65
2022/12/01 04:33:27;;;;;;;;;;;;;;;18.03;60.20;101744.78;7405145;19;1763;-64
2022/12/01 04:35:59;;;;;;;;;;;;;;;18.37;59.82;101751.31;7406244;19;1617;-65
2022/12/01 04:38:30;;;;;;;;;;;;;;;18.58;59.56;101742.72;7405125;19;1573;-65
2022/12/01 04:40:58;;;;;;;;;;;;;;;18.56;60.23;101748.22;7405065;19;1855;-66
2022/12/01 04:43:26;;;;;;;;;;;;;;;18.66;59.87;101754.63;7404073;19;1505;-66
2022/12/01 04:45:54;;;;;;;;;;;;;;;18.68;60.21;101750.03;7405397;19;1351;-63
2022/12/01 04:48:23;;;;;;;;;;;;;;;18.80;60.24;101763.53;7404338;19;1368;-66
2022/12/01 04:50:51;;;;;;;;;;;;;;;18.95;59.71;101759.75;7403656;19;1517;-63
2022/12/01 04:53:19;;;;;;;;;;;;;;;18.94;59.68;101765.22;7405047;19;1542;-63
2022/12/01 04:55:50;;;;;;;;;;;;;;;18.73;60.36;101754.19;7406298;19;1072;-66
2022/12/01 04:58:19;;;;;;;;;;;;;;;18.62;60.79;101763.84;7399801;19;1386;-66
2022/12/01 05:00:47;;;;;;;;;;;;;;;18.66;60.95;101767.16;7401965;19;1564;-63
2022/12/01 05:03:15;;;;;;;;;;;;;;;18.74;60.78;101771.97;7403793;19;1841;-67
2022/12/01 05:05:44;;;;;;;;;;;;;;;18.78;60.71;101757.38;7406442;19;1589;-63
2022/12/01 05:08:12;;;;;;;;;;;;;;;18.64;60.97;101759.25;7405511;19;1586;-66
2022/12/01 05:10:40;;;;;;;;;;;;;;;18.62;61.10;101761.19;7404931;19;1284;-63
2022/12/01 05:13:11;;;;;;;;;;;;;;;18.69;61.03;101778.50;7401318;19;1060;-63
2022/12/01 05:15:40;;;;;;;;;;;;;;;18.69;61.16;101754.41;7402656;19;1395;-63
2022/12/01 05:18:08;;;;;;;;;;;;;;;18.81;60.76;101765.25;7404274;19;1553;-66
2022/12/01 05:23:17;;;;;;;;;;;;;;;18.80;60.90;101758.16;7402588;19;1850;-66
2022/12/01 05:25:46;;;;;;;;;;;;;;;18.88;61.00;101770.06;7405095;19;988;-66
2022/12/01 05:28:16;;;;;;;;;;;;;;;18.84;60.90;101756.97;7398295;19;1395;-64
2022/12/01 05:30:45;;;;;;;;;;;;;;;19.08;60.98;101768.63;7401285;19;1370;-67
2022/12/01 05:33:13;;;;;;;;;;;;;;;19.16;61.32;101765.38;7403772;19;1613;-63
2022/12/01 05:35:42;;;;;;;;;;;;;;;18.99;62.44;101753.19;7404070;19;1296;-64
2022/12/01 05:38:10;;;;;;;;;;;;;;;19.00;62.51;101754.91;7403897;19;1755;-66
2022/12/01 05:40:39;;;;;;;;;;;;;;;19.12;61.99;101744.25;7402972;19;1467;-62
2022/12/01 05:43:08;;;;;;;;;;;;;;;19.22;61.72;101767.63;7399747;19;1869;-62
2022/12/01 05:45:39;;;;;;;;;;;;;;;19.53;60.79;101767.16;7403597;19;1511;-65
2022/12/01 05:48:07;;;;;;;;;;;;;;;19.41;60.16;101775.16;7402423;19;1396;-70
2022/12/01 05:50:37;;;;;;;;;;;;;;;19.51;60.24;101763.75;7403671;19;1304;-65
2022/12/01 05:53:05;;;;;;;;;;;;;;;19.73;59.51;101761.19;7403759;19;1012;-69
2022/12/01 05:55:34;;;;;;;;;;;;;;;19.81;59.28;101777.56;7403593;19;1565;-67
2022/12/01 05:58:02;;;;;;;;;;;;;;;19.81;59.82;101772.19;7402902;19;1450;-63
2022/12/01 06:00:31;;;;;;;;;;;;;;;19.79;60.06;101757.19;7400794;19;1545;-63
2022/12/01 06:03:02;;;;;;;;;;;;;;;19.83;60.27;101748.75;7402157;19;1936;-63
2022/12/01 06:05:30;;;;;;;;;;;;;;;19.96;59.79;101763.97;7402184;19;1404;-64
2022/12/01 06:07:58;;;;;;;;;;;;;;;19.96;59.65;101753.22;7402686;19;1372;-63
2022/12/01 06:10:26;;;;;;;;;;;;;;;19.89;60.16;101770.75;7402704;19;1521;-66
2022/12/01 06:12:55;;;;;;;;;;;;;;;19.94;60.24;101771.28;7399465;19;1533;-66
2022/12/01 06:15:23;;;;;;;;;;;;;;;20.06;60.47;101756.91;7402485;19;1386;-65
2022/12/01 06:17:51;;;;;;;;;;;;;;;19.98;60.44;101746.75;7403194;19;1626;-65
2022/12/01 06:20:22;;;;;;;;;;;;;;;19.89;61.58;101768.06;7402160;19;1399;-68
2022/12/01 06:22:51;;;;;;;;;;;;;;;19.88;61.98;101766.38;7401771;19;1856;-63
2022/12/01 06:25:19;;;;;;;;;;;;;;;19.91;62.00;101774.19;7401452;19;1209;-64
2022/12/01 06:27:47;;;;;;;;;;;;;;;19.93;62.11;101764.19;7401883;19;1256;-65
2022/12/01 06:30:16;;;;;;;;;;;;;;;19.89;62.56;101770.75;7400355;19;1398;-67
2022/12/01 06:32:44;;;;;;;;;;;;;;;19.82;62.61;101773.06;7402605;19;1482;-64
2022/12/01 06:35:12;;;;;;;;;;;;;;;19.80;62.69;101754.38;7401162;19;1550;-64
2022/12/01 06:37:43;;;;;;;;;;;;;;;19.83;62.35;101762.19;7392722;19;1536;-65
2022/12/01 06:40:13;;;;;;;;;;;;;;;19.91;62.65;101761.59;7399685;19;1191;-64
2022/12/01 06:42:41;;;;;;;;;;;;;;;19.94;62.63;101756.00;7403301;19;1891;-71
2022/12/01 06:45:10;;;;;;;;;;;;;;;19.86;63.15;101769.16;7406663;19;1374;-65
2022/12/01 06:47:38;;;;;;;;;;;;;;;19.80;62.87;101754.38;7407929;19;1301;-65
2022/12/01 06:50:08;;;;;;;;;;;;;;;19.62;62.98;101770.00;7406313;19;1622;-66
2022/12/01 06:52:37;;;;;;;;;;;;;;;19.81;62.23;101765.97;7404412;19;1408;-66
2022/12/01 06:55:08;;;;;;;;;;;;;;;19.79;61.75;101768.75;7407302;19;1562;-65
2022/12/01 06:57:37;;;;;;;;;;;;;;;19.73;61.86;101755.81;7409347;19;1298;-66
2022/12/01 07:00:07;;;;;;;;;;;;;;;19.71;61.81;101764.94;7409257;19;998;-65
2022/12/01 07:02:35;;;;;;;;;;;;;;;19.67;61.42;101758.94;7407837;19;1852;-65
2022/12/01 07:05:04;;;;;;;;;;;;;;;19.60;61.62;101760.38;7409470;19;1680;-65
2022/12/01 07:07:32;;;;;;;;;;;;;;;19.43;60.05;101742.84;7408282;19;1677;-65
2022/12/01 07:10:00;;;;;;;;;;;;;;;19.41;60.09;101761.72;7407849;19;1636;-65
2022/12/01 07:12:34;;;;;;;;;;;;;;;19.52;59.36;101746.66;7409403;19;999;-65
2022/12/01 07:15:03;;;;;;;;;;;;;;;19.58;58.96;101760.50;7409138;19;940;-65
2022/12/01 07:17:31;;;;;;;;;;;;;;;19.56;59.17;101753.53;7404090;19;1495;-65
2022/12/01 07:20:00;;;;;;;;;;;;;;;19.53;59.69;101751.91;7405183;19;1419;-66
2022/12/01 07:22:29;;;;;;;;;;;;;;;19.64;59.38;101751.13;7406761;19;1854;-67
2022/12/01 07:24:57;;;;;;;;;;;;;;;19.75;59.16;101769.13;7408223;19;1431;-65
2022/12/01 07:27:26;;;;;;;;;;;;;;;19.73;59.16;101761.19;7408394;19;961;-65
2022/12/01 07:29:57;;;;;;;;;;;;;;;19.32;59.64;101700.75;7408246;19;1554;-66
2022/12/01 07:32:25;;;;;;;;;;;;;;;19.60;59.90;101757.69;7405421;19;1511;-65
2022/12/01 07:34:53;;;;;;;;;;;;;;;19.59;60.07;101762.19;7403836;19;1450;-66
2022/12/01 07:37:22;;;;;;;;;;;;;;;19.66;59.92;101766.13;7407559;19;1610;-65
2022/12/01 07:39:50;;;;;;;;;;;;;;;19.78;59.73;101767.06;7405668;19;1364;-66
2022/12/01 07:42:18;;;;;;;;;;;;;;;19.78;59.75;101764.38;7399607;19;1837;-67
2022/12/01 07:44:47;;;;;;;;;;;;;;;19.74;59.81;101770.09;7406739;19;1256;-67
2022/12/01 07:47:18;;;;;;;;;;;;;;;19.65;60.16;101760.88;7405921;19;1269;-65
2022/12/01 07:49:47;;;;;;;;;;;;;;;19.61;60.23;101754.03;7406743;19;1470;-67
2022/12/01 07:52:15;;;;;;;;;;;;;;;19.63;60.39;101771.72;7406075;19;1178;-65
2022/12/01 07:54:43;;;;;;;;;;;;;;;19.70;60.18;101764.06;7404737;19;1363;-67
2022/12/01 07:57:13;;;;;;;;;;;;;;;19.73;60.04;101757.66;7403402;19;1010;-67
2022/12/01 07:59:41;;;;;;;;;;;;;;;19.68;60.10;101755.28;7405005;19;1287;-66
2022/12/01 08:02:10;;;;;;;;;;;;;;;19.62;60.47;101727.09;7403485;19;1852;-66
2022/12/01 08:04:41;;;;;;;;;;;;;;;19.62;60.54;101737.81;7406023;19;1632;-67
2022/12/01 08:07:09;;;;;;;;;;;;;;;19.85;60.33;101738.75;7405907;19;1577;-68
2022/12/01 08:09:38;;;;;;;;;;;;;;;19.88;60.21;101750.28;7406386;19;1364;-68
2022/12/01 08:12:06;;;;;;;;;;;;;;;20.01;59.76;101761.75;7406389;19;1236;-69
2022/12/01 08:14:34;;;;;;;;;;;;;;;19.90;60.91;101772.47;7406364;19;1740;-64
2022/12/01 08:17:03;;;;;;;;;;;;;;;19.76;61.23;101762.78;7405388;19;1313;-64
2022/12/01 08:19:31;;;;;;;;;;;;;;;19.91;61.17;101766.13;7404901;19;1436;-64
2022/12/01 08:22:02;;;;;;;;;;;;;;;20.06;60.47;101771.19;7405994;19;1316;-64
2022/12/01 08:24:30;;;;;;;;;;;;;;;20.10;60.65;101773.63;7404531;19;1823;-66
2022/12/01 08:26:59;;;;;;;;;;;;;;;19.93;61.14;101775.75;7405862;19;1149;-64
2022/12/01 08:29:27;;;;;;;;;;;;;;;19.93;60.94;101780.28;7403388;19;1316;-69
2022/12/01 08:31:55;;;;;;;;;;;;;;;19.98;60.90;101767.38;7405132;19;1350;-69
2022/12/01 08:34:24;;;;;;;;;;;;;;;20.04;60.51;101774.97;7400580;19;1462;-69
2022/12/01 08:36:52;;;;;;;;;;;;;;;19.96;60.63;101764.81;7402674;19;1496;-68
2022/12/01 08:39:23;;;;;;;;;;;;;;;19.78;61.18;101761.69;7400833;19;1530;-69
2022/12/01 08:41:51;;;;;;;;;;;;;;;19.85;61.28;101772.81;7405455;19;1077;-64
2022/12/01 08:44:20;;;;;;;;;;;;;;;19.92;60.92;101766.00;7402005;19;1883;-64
2022/12/01 08:46:48;;;;;;;;;;;;;;;19.82;61.29;101765.84;7404714;19;1384;-64
2022/12/01 08:49:16;;;;;;;;;;;;;;;19.82;61.22;101779.28;7404367;19;1189;-64
2022/12/01 08:51:45;;;;;;;;;;;;;;;19.79;61.49;101774.13;7400828;19;1376;-64
2022/12/01 08:54:13;;;;;;;;;;;;;;;19.79;61.40;101755.34;7403678;19;1208;-68
2022/12/01 08:56:46;;;;;;;;;;;;;;;19.88;61.40;101761.00;7404771;19;1311;-64
2022/12/01 08:59:14;;;;;;;;;;;;;;;19.87;61.14;101749.38;7402727;19;1250;-64
2022/12/01 09:01:53;;;;;;;;;;;;;;;19.53;62.39;101753.75;7404588;19;1371;-69
2022/12/01 09:04:23;;;;;;;;;;;;;;;19.24;63.02;101762.16;7398138;19;1842;-68
2022/12/01 09:06:52;;;;;;;;;;;;;;;19.01;63.28;101755.78;7334775;19;12639;-64
2022/12/01 09:09:22;;;;;;;;;;;;;;;18.85;63.57;101756.88;7403959;19;1314;-68
2022/12/01 09:11:53;;;;;;;;;;;;;;;18.74;64.60;101753.22;7404865;19;1016;-67
2022/12/01 09:14:23;;;;;;;;;;;;;;;18.65;64.71;101757.41;7401575;19;1742;-67
2022/12/01 09:16:52;;;;;;;;;;;;;;;18.61;66.07;101758.59;7404605;19;1179;-65
2022/12/01 09:19:21;;;;;;;;;;;;;;;18.60;65.78;101765.78;7403899;19;1600;-67
2022/12/01 09:21:49;;;;;;;;;;;;;;;18.61;64.81;101763.97;7402681;19;1538;-64
2022/12/01 09:24:18;;;;;;;;;;;;;;;18.63;65.96;101778.09;7401684;19;1899;-73
2022/12/01 09:26:46;;;;;;;;;;;;;;;18.58;66.32;101759.69;7405784;19;1326;-64
2022/12/01 09:29:18;;;;;;;;;;;;;;;18.61;66.07;101743.38;7404530;19;1486;-67
2022/12/01 09:31:46;;;;;;;;;;;;;;;18.88;65.79;101740.59;7402563;19;1149;-66
2022/12/01 09:34:15;;;;;;;;;;;;;;;19.25;64.67;101732.50;7401108;19;1391;-67
2022/12/01 09:36:44;;;;;;;;;;;;;;;19.99;62.95;101736.84;7400998;19;1379;-73
2022/12/01 09:39:13;;;;;;;;;;;;;;;20.03;62.83;101727.59;7404416;19;1427;-76
2022/12/01 09:41:44;;;;;;;;;;;;;;;20.13;62.59;101725.91;7403446;19;1423;-66
2022/12/01 09:44:19;;;;;;;;;;;;;;;20.16;62.22;101730.19;7401467;19;1857;-64
2022/12/01 09:46:51;;;;;;;;;;;;;;;20.08;62.76;101741.53;7402606;19;1493;-65
2022/12/01 09:49:22;;;;;;;;;;;;;;;20.05;62.84;101731.00;7401837;19;1513;-68
2022/12/01 09:51:51;;;;;;;;;;;;;;;20.31;61.74;101715.53;7399907;19;1498;-64
2022/12/01 09:54:19;;;;;;;;;;;;;;;20.47;61.40;101715.19;7393437;19;1569;-65
2022/12/01 09:56:49;;;;;;;;;;;;;;;20.40;61.33;101713.97;7403158;19;1365;-65
2022/12/01 09:59:21;;;;;;;;;;;;;;;20.21;61.97;101707.38;7398319;19;1423;-71
2022/12/01 10:01:54;;;;;;;;;;;;;;;20.19;61.93;101709.34;7397374;19;1503;-66
2022/12/01 10:04:24;;;;;;;;;;;;;;;20.16;62.21;101717.63;7402146;19;1861;-65
2022/12/01 10:06:54;;;;;;;;;;;;;;;20.27;62.07;101720.31;7401500;19;1398;-67
2022/12/01 10:09:24;;;;;;;;;;;;;;;20.32;61.87;101721.78;7401044;19;1223;-70
2022/12/01 10:11:56;;;;;;;;;;;;;;;20.10;62.88;101712.72;7402016;19;1482;-67
2022/12/01 10:14:24;;;;;;;;;;;;;;;20.08;62.70;101698.56;7399819;19;1569;-66
2022/12/01 10:17:02;;;;;;;;;;;;;;;20.18;62.64;101709.44;7404540;19;1700;-64
2022/12/01 10:19:34;;;;;;;;;;;;;;;20.32;62.37;101701.16;7409763;19;1609;-67
2022/12/01 10:22:10;;;;;;;;;;;;;;;20.36;62.20;101712.50;7408352;19;1196;-65
2022/12/01 10:24:53;;;;;;;;;;;;;;;20.31;62.05;101690.53;7405651;19;1838;-64
2022/12/01 10:27:27;;;;;;;;;;;;;;;20.24;62.36;101717.88;7407767;19;1412;-66
2022/12/01 10:30:02;;;;;;;;;;;;;;;19.96;62.56;101704.91;7410966;19;1516;-66
2022/12/01 10:32:40;;;;;;;;;;;;;;;19.93;61.94;101700.59;7408757;19;1772;-62
2022/12/01 10:35:11;;;;;;;;;;;;;;;19.98;62.03;101700.25;7407498;19;1535;-62
2022/12/01 10:37:40;;;;;;;;;;;;;;;20.05;62.29;101696.09;7407595;19;1608;-63
2022/12/01 10:40:13;;;;;;;;;;;;;;;20.13;62.02;101701.72;7408620;19;1633;-62
2022/12/01 10:42:43;;;;;;;;;;;;;;;20.18;61.76;101693.34;7408703;19;1617;-66
2022/12/01 10:45:17;;;;;;;;;;;;;;;20.06;62.28;101698.69;7406959;19;1853;-66
2022/12/01 10:48:00;;;;;;;;;;;;;;;20.08;62.03;101687.81;7410120;19;1056;-66
2022/12/01 10:50:31;;;;;;;;;;;;;;;19.97;62.36;101674.38;7409382;19;1026;-66
2022/12/01 10:52:59;;;;;;;;;;;;;;;19.98;62.51;101686.84;7408778;19;1020;-62
2022/12/01 10:55:29;;;;;;;;;;;;;;;19.98;62.57;101681.47;7408476;19;1760;-66
2022/12/01 10:58:01;;;;;;;;;;;;;;;19.97;62.43;101669.84;7409093;19;1557;-66
2022/12/01 11:00:32;;;;;;;;;;;;;;;20.01;62.40;101660.59;7407224;19;1282;-66
2022/12/01 11:03:01;;;;;;;;;;;;;;;20.00;62.66;101663.41;7408059;19;1403;-62
2022/12/01 11:05:34;;;;;;;;;;;;;;;19.93;62.71;101672.91;7409734;19;1510;-62
2022/12/01 11:08:02;;;;;;;;;;;;;;;19.92;62.83;101663.16;7410752;19;932;-65
2022/12/01 11:10:32;;;;;;;;;;;;;;;19.89;62.88;101660.69;7408480;19;1705;-65
2022/12/01 11:13:01;;;;;;;;;;;;;;;20.05;62.30;101653.16;7405813;19;1360;-66
2022/12/01 11:15:30;;;;;;;;;;;;;;;20.10;62.22;101656.34;7408817;19;1617;-64
2022/12/01 11:18:00;;;;;;;;;;;;;;;20.05;62.05;101654.03;7408230;19;1353;-62
2022/12/01 11:20:33;;;;;;;;;;;;;;;19.98;62.38;101651.94;7408052;19;1396;-65
2022/12/01 11:23:27;;;;;;;;;;;;;;;19.90;62.78;101646.31;7408136;19;1013;-66
2022/12/01 11:26:00;;;;;;;;;;;;;;;19.97;62.34;101663.63;7407537;19;933;-62
2022/12/01 11:28:29;;;;;;;;;;;;;;;20.04;62.28;101654.13;7400399;19;1689;-62
2022/12/01 11:30:58;;;;;;;;;;;;;;;20.10;62.06;101642.91;7402089;19;1404;-63
2022/12/01 11:33:27;;;;;;;;;;;;;;;20.00;62.13;101658.88;7406784;19;1625;-63
2022/12/01 11:35:58;;;;;;;;;;;;;;;19.93;62.52;101646.06;7401253;19;1111;-62
2022/12/01 11:38:33;;;;;;;;;;;;;;;19.98;62.26;101643.88;7399641;19;1120;-62
2022/12/01 11:41:01;;;;;;;;;;;;;;;20.02;62.23;101656.09;7407727;19;1201;-66
2022/12/01 11:43:31;;;;;;;;;;;;;;;20.04;62.28;101646.94;7406361;19;1857;-62
2022/12/01 11:46:00;;;;;;;;;;;;;;;19.98;62.60;101641.19;7404036;19;1324;-66
2022/12/01 11:48:29;;;;;;;;;;;;;;;19.82;62.59;101645.06;7403838;19;1302;-65
2022/12/01 11:51:12;;;;;;;;;;;;;;;19.92;62.45;101641.69;7401465;19;1396;-68
2022/12/01 11:53:42;;;;;;;;;;;;;;;20.02;62.37;101645.34;7406290;19;1221;-66
2022/12/01 11:56:17;;;;;;;;;;;;;;;20.09;62.27;101641.19;7406033;19;1482;-63
2022/12/01 11:58:48;;;;;;;;;;;;;;;20.04;62.05;101648.78;7404889;19;1390;-72
2022/12/01 12:01:21;;;;;;;;;;;;;;;20.11;61.62;101660.72;7404830;19;1387;-66
2022/12/01 12:03:53;;;;;;;;;;;;;;;20.22;61.26;101644.63;7401771;19;2160;-65
2022/12/01 12:06:26;;;;;;;;;;;;;;;20.27;60.95;101647.81;7404895;19;1438;-71
2022/12/01 12:09:01;;;;;;;;;;;;;;;20.20;61.32;101645.72;7404796;19;1648;-66
2022/12/01 12:11:32;;;;;;;;;;;;;;;20.18;61.62;101643.16;7402106;19;1474;-65
2022/12/01 12:14:11;;;;;;;;;;;;;;;20.17;61.47;101648.63;7404513;19;1312;-67
2022/12/01 12:16:48;;;;;;;;;;;;;;;20.32;61.10;101643.88;7401958;19;1406;-67
2022/12/01 12:19:31;;;;;;;;;;;;;;;20.49;60.69;101659.47;7403657;19;1445;-66
2022/12/01 12:22:08;;;;;;;;;;;;;;;20.58;60.24;101660.59;7402441;19;1336;-70
2022/12/01 12:24:40;;;;;;;;;;;;;;;20.61;60.26;101663.03;7399591;19;1849;-67
2022/12/01 12:27:14;;;;;;;;;;;;;;;20.48;60.17;101656.94;7403420;19;1423;-64
2022/12/01 12:29:52;;;;;;;;;;;;;;;20.68;60.16;101664.28;7401945;19;1319;-69
2022/12/01 12:32:30;;;;;;;;;;;;;;;20.65;60.26;101654.63;7402508;19;1189;-70
2022/12/01 12:35:04;;;;;;;;;;;;;;;20.49;60.25;101658.63;7403026;19;1378;-67
2022/12/01 12:37:39;;;;;;;;;;;;;;;20.46;59.83;101649.00;7404571;19;1300;-67
2022/12/01 12:40:18;;;;;;;;;;;;;;;20.58;59.43;101658.75;7404109;19;1234;-67
2022/12/01 12:42:53;;;;;;;;;;;;;;;20.62;59.42;101660.25;7405568;19;1337;-66
2022/12/01 12:45:26;;;;;;;;;;;;;;;20.63;59.49;101664.66;7403590;19;1862;-66
2022/12/01 12:48:02;;;;;;;;;;;;;;;20.63;59.23;101667.34;7405444;19;1116;-65
2022/12/01 12:50:32;;;;;;;;;;;;;;;20.69;59.03;101667.81;7404012;19;1426;-66
2022/12/01 12:53:06;;;;;;;;;;;;;;;20.66;59.16;101659.00;7406017;19;1042;-65
2022/12/01 12:55:38;;;;;;;;;;;;;;;20.63;59.22;101666.47;7404841;19;1673;-67
2022/12/01 12:58:09;;;;;;;;;;;;;;;20.63;59.16;101675.41;7402928;19;1358;-66
2022/12/01 13:00:40;;;;;;;;;;;;;;;20.69;59.02;101671.38;7403515;19;1566;-66
2022/12/01 13:03:14;;;;;;;;;;;;;;;20.64;59.35;101668.19;7402782;19;1550;-66
2022/12/01 13:05:48;;;;;;;;;;;;;;;20.64;59.56;101663.66;7403632;19;1838;-66
2022/12/01 13:08:22;;;;;;;;;;;;;;;20.60;59.62;101661.34;7405147;19;1620;-66
2022/12/01 13:10:52;;;;;;;;;;;;;;;20.52;59.82;101663.78;7404717;19;1257;-66
2022/12/01 13:13:24;;;;;;;;;;;;;;;20.49;60.18;101659.47;7404123;19;1382;-66